Time;durP1;ratioP1;P1;durP2;ratioP2;P2;SDS_P1;SDS_P2;PMS_P1;PMS_P2;Temp;Humidity;BMP_temperature;BMP_pressure;BME280_temperature;BME280_humidity;BME280_pressure;Samples;Min_cycle;Max_cycle;Signal;HPM_P1;HPM_P2
2022/10/21 00:00:12;;;;;;;13.55;9.60;;;;;;;10.56;60.17;95513.56;4193832;28;20044;-54
2022/10/21 00:02:14;;;;;;;13.57;9.45;;;;;;;10.55;59.95;95511.88;4186515;28;20045;-58
2022/10/21 00:04:15;;;;;;;11.60;9.55;;;;;;;10.53;60.15;95499.91;4179639;28;20131;-55
2022/10/21 00:06:17;;;;;;;12.95;10.27;;;;;;;10.48;60.25;95502.13;4181346;28;20136;-59
2022/10/21 00:08:19;;;;;;;15.43;11.40;;;;;;;10.51;60.07;95504.44;4195087;28;20135;-56
2022/10/21 00:10:21;;;;;;;15.93;11.15;;;;;;;10.50;60.48;95502.81;4194977;28;20166;-58
2022/10/21 00:12:23;;;;;;;16.65;10.95;;;;;;;10.55;60.60;95495.34;4195149;28;20072;-59
2022/10/21 00:14:24;;;;;;;12.30;10.32;;;;;;;10.57;60.30;95496.84;4194224;28;20152;-56
2022/10/21 00:16:26;;;;;;;15.18;11.18;;;;;;;10.41;60.81;95501.81;4190208;28;20045;-57
2022/10/21 00:18:28;;;;;;;17.95;12.23;;;;;;;10.35;61.27;95497.16;4180932;28;20581;-58
2022/10/21 00:20:30;;;;;;;15.15;11.30;;;;;;;10.19;61.57;95497.66;4179280;28;20051;-58
2022/10/21 00:22:36;;;;;;;14.73;10.73;;;;;;;10.08;61.93;95493.38;4178640;28;20497;-59
2022/10/21 00:24:38;;;;;;;16.30;11.20;;;;;;;10.08;62.13;95497.78;4190975;28;20060;-63
2022/10/21 00:26:40;;;;;;;15.73;11.10;;;;;;;10.07;62.39;95499.59;4184769;28;20079;-62
2022/10/21 00:28:42;;;;;;;14.82;11.27;;;;;;;10.07;62.09;95490.88;4194485;28;20052;-63
2022/10/21 00:30:44;;;;;;;15.07;11.07;;;;;;;10.12;62.35;95493.94;4193040;28;20056;-64
2022/10/21 00:32:46;;;;;;;18.13;11.20;;;;;;;10.14;62.09;95486.78;4193324;28;20124;-65
2022/10/21 00:34:48;;;;;;;14.73;10.82;;;;;;;10.14;62.20;95489.38;4193521;28;20047;-58
2022/10/21 00:36:49;;;;;;;14.93;11.55;;;;;;;10.11;62.07;95489.66;4187166;28;20048;-58
2022/10/21 00:38:52;;;;;;;17.25;11.43;;;;;;;10.05;62.28;95497.09;4179495;28;20053;-58
2022/10/21 00:40:54;;;;;;;15.80;10.45;;;;;;;10.02;61.87;95492.16;4177785;28;20477;-57
2022/10/21 00:42:55;;;;;;;15.52;10.60;;;;;;;9.89;61.87;95488.94;4182289;28;20041;-54
2022/10/21 00:45:06;;;;;;;12.45;9.23;;;;;;;9.73;62.18;95491.25;4192092;28;20078;-57
2022/10/21 00:47:14;;;;;;;13.10;9.50;;;;;;;9.39;62.45;95488.94;4194655;28;20056;-57
2022/10/21 00:49:35;;;;;;;15.57;9.90;;;;;;;9.13;63.50;95483.34;4178160;28;20057;-56
2022/10/21 00:51:37;;;;;;;11.82;9.40;;;;;;;9.10;64.36;95489.66;4179248;28;20051;-58
2022/10/21 00:53:41;;;;;;;11.63;8.85;;;;;;;8.83;63.72;95477.13;4188657;28;20523;-56
2022/10/21 00:55:50;;;;;;;10.55;8.90;;;;;;;8.38;66.33;95482.59;4192095;28;20131;-55
2022/10/21 00:57:52;;;;;;;12.43;9.05;;;;;;;8.25;67.43;95481.94;4189231;28;20511;-56
2022/10/21 00:59:58;;;;;;;12.88;9.10;;;;;;;8.14;67.28;95486.25;4186647;28;20083;-57
2022/10/21 01:01:59;;;;;;;12.05;9.70;;;;;;;7.90;67.69;95483.03;4191977;28;20131;-55
2022/10/21 01:04:02;;;;;;;12.00;9.38;;;;;;;8.06;67.73;95482.63;4190323;28;20470;-58
2022/10/21 01:06:07;;;;;;;13.70;9.15;;;;;;;8.29;67.64;95480.75;4185322;28;20075;-56
2022/10/21 01:08:09;;;;;;;16.00;9.27;;;;;;;8.53;66.32;95475.31;4191265;28;20047;-61
2022/10/21 01:10:11;;;;;;;12.55;10.88;;;;;;;8.74;65.90;95473.53;4188307;28;20052;-58
2022/10/21 01:12:35;;;;;;;16.15;10.80;;;;;;;8.97;64.73;95478.56;4194303;28;20076;-58
2022/10/21 01:14:39;;;;;;;;;;;;;;;9.08;64.06;95480.28;4177760;28;20456;-58
2022/10/21 01:16:46;;;;;;;18.55;11.23;;;;;;;9.12;63.59;95476.44;4185687;28;19921;-59
2022/10/21 01:19:00;;;;;;;16.42;11.77;;;;;;;9.16;63.96;95488.31;4194943;28;20045;-56
2022/10/21 01:21:17;;;;;;;14.83;10.50;;;;;;;9.20;63.07;95487.09;4194966;28;20171;-58
2022/10/21 01:23:27;;;;;;;15.13;10.95;;;;;;;9.25;63.34;95486.69;4177612;28;20472;-59
2022/10/21 01:25:59;;;;;;;14.85;10.80;;;;;;;9.32;63.52;95487.84;4176384;28;20053;-57
2022/10/21 01:28:34;;;;;;;16.35;11.18;;;;;;;9.35;62.77;95492.78;4179603;28;20107;-56
2022/10/21 01:30:56;;;;;;;16.67;11.50;;;;;;;9.32;62.78;95493.88;4192818;28;20054;-57
2022/10/21 01:33:07;;;;;;;15.38;10.85;;;;;;;9.26;62.52;95497.03;4175369;28;20044;-55
2022/10/21 01:35:24;;;;;;;16.65;10.63;;;;;;;9.23;62.62;95492.06;4192779;28;20079;-57
2022/10/21 01:37:47;;;;;;;19.88;13.05;;;;;;;9.21;63.08;95496.59;4190889;28;20075;-57
2022/10/21 01:39:52;;;;;;;17.52;12.57;;;;;;;9.18;62.98;95494.22;4181589;28;20048;-58
2022/10/21 01:41:58;;;;;;;18.60;12.32;;;;;;;9.18;63.11;95491.63;4194132;28;20143;-59
2022/10/21 01:44:08;;;;;;;21.63;12.82;;;;;;;9.17;62.69;95496.03;4192159;28;20477;-59
2022/10/21 01:46:23;;;;;;;21.48;13.75;;;;;;;9.15;63.13;95502.34;4180000;28;20148;-58
2022/10/21 01:48:32;;;;;;;23.15;14.02;;;;;;;9.08;63.35;95495.97;4194691;28;20053;-55
2022/10/21 01:50:38;;;;;;;18.10;13.07;;;;;;;9.00;63.36;95494.84;4192794;28;20086;-59
2022/10/21 01:52:41;;;;;;;19.17;13.43;;;;;;;8.99;63.83;95502.78;4180640;28;20044;-59
2022/10/21 01:54:45;;;;;;;18.90;12.40;;;;;;;9.01;63.94;95506.09;4182621;28;20131;-56
2022/10/21 01:56:47;;;;;;;17.67;12.95;;;;;;;9.07;63.01;95499.53;4186510;28;20103;-57
2022/10/21 01:58:49;;;;;;;21.23;12.88;;;;;;;9.03;63.13;95496.34;4177343;28;20134;-53
2022/10/21 02:00:53;;;;;;;16.98;11.90;;;;;;;8.85;63.30;95496.13;4177241;28;20052;-56
2022/10/21 02:02:55;;;;;;;18.05;12.40;;;;;;;8.44;64.48;95502.19;4191056;28;20052;-58
2022/10/21 02:04:58;;;;;;;16.58;12.85;;;;;;;8.30;65.45;95501.50;4188883;28;20643;-56
2022/10/21 02:07:00;;;;;;;16.90;13.13;;;;;;;8.34;65.55;95497.66;4185896;28;20139;-56
2022/10/21 02:09:01;;;;;;;17.55;12.85;;;;;;;8.42;65.37;95502.31;4196709;28;20114;-56
2022/10/21 02:11:06;;;;;;;18.20;12.90;;;;;;;8.48;65.04;95496.59;4185845;28;20467;-58
2022/10/21 02:13:10;;;;;;;20.10;12.55;;;;;;;8.60;64.67;95506.03;4198183;28;20083;-59
2022/10/21 02:15:13;;;;;;;18.48;12.23;;;;;;;8.71;64.61;95499.06;4194794;28;20062;-58
2022/10/21 02:17:17;;;;;;;16.65;12.85;;;;;;;8.74;64.14;95504.03;4186351;28;20057;-58
2022/10/21 02:19:19;;;;;;;16.92;12.20;;;;;;;8.77;64.60;95496.75;4185866;28;20145;-59
2022/10/21 02:21:22;;;;;;;19.20;11.88;;;;;;;8.85;63.71;95500.53;4186303;28;20052;-57
2022/10/21 02:23:38;;;;;;;16.38;11.82;;;;;;;8.87;63.86;95504.66;4180650;28;20079;-58
2022/10/21 02:25:41;;;;;;;15.93;12.45;;;;;;;8.88;64.60;95505.50;4180100;28;20128;-55
2022/10/21 02:27:43;;;;;;;17.85;12.80;;;;;;;8.69;63.57;95507.03;4180629;28;20088;-57
2022/10/21 02:29:46;;;;;;;15.82;11.43;;;;;;;8.55;64.58;95502.94;4188164;28;20060;-57
2022/10/21 02:32:14;;;;;;;17.05;11.75;;;;;;;8.15;65.96;95510.56;4195797;28;20557;-57
2022/10/21 02:34:26;;;;;;;14.85;11.57;;;;;;;8.07;66.43;95511.19;4195692;28;20724;-57
2022/10/21 02:36:32;;;;;;;14.75;11.85;;;;;;;7.85;66.49;95511.25;4192398;28;20048;-56
2022/10/21 02:38:51;;;;;;;17.80;10.75;;;;;;;7.73;67.46;95511.28;4189028;28;20140;-56
2022/10/21 02:40:54;;;;;;;16.00;10.10;;;;;;;7.44;68.38;95515.34;4179505;28;20049;-58
2022/10/21 02:43:12;;;;;;;14.70;11.00;;;;;;;7.42;68.30;95517.25;4189360;28;20045;-58
2022/10/21 02:45:15;;;;;;;19.02;11.07;;;;;;;7.04;69.32;95518.44;4178799;28;20064;-57
2022/10/21 02:47:17;;;;;;;13.25;11.00;;;;;;;7.12;69.44;95518.66;4200770;28;20040;-65
2022/10/21 02:49:18;;;;;;;16.17;11.25;;;;;;;6.92;69.89;95520.19;4187682;28;20117;-64
2022/10/21 02:51:20;;;;;;;16.83;11.45;;;;;;;7.09;70.01;95519.72;4195741;28;20052;-58
2022/10/21 02:53:22;;;;;;;14.52;10.50;;;;;;;7.34;69.15;95526.50;4195308;28;20044;-59
2022/10/21 02:55:24;;;;;;;24.55;17.30;;;;;;;7.48;68.97;95530.63;4196242;28;20060;-58
2022/10/21 02:57:25;;;;;;;20.70;13.27;;;;;;;7.68;67.91;95526.47;4196567;28;20091;-50
2022/10/21 02:59:27;;;;;;;15.75;11.10;;;;;;;7.86;67.21;95523.34;4183691;28;20594;-58
2022/10/21 03:01:28;;;;;;;17.55;11.02;;;;;;;7.97;66.48;95518.94;4194901;28;20798;-57
2022/10/21 03:03:30;;;;;;;15.82;11.25;;;;;;;8.11;65.78;95517.84;4190838;28;20041;-57
2022/10/21 03:05:32;;;;;;;17.90;11.07;;;;;;;8.22;65.52;95516.97;4193209;28;20057;-56
2022/10/21 03:07:34;;;;;;;13.70;11.13;;;;;;;8.25;64.83;95515.88;4195869;28;20052;-58
2022/10/21 03:09:36;;;;;;;15.88;10.75;;;;;;;8.21;64.98;95521.34;4192633;28;20045;-56
2022/10/21 03:11:38;;;;;;;15.27;11.35;;;;;;;7.72;66.29;95525.28;4193468;28;20556;-58
2022/10/21 03:13:39;;;;;;;15.48;11.68;;;;;;;7.47;66.67;95533.38;4197346;28;20413;-59
2022/10/21 03:15:41;;;;;;;17.20;13.23;;;;;;;7.20;68.56;95526.72;4192472;28;20044;-53
2022/10/21 03:17:43;;;;;;;22.13;13.52;;;;;;;7.22;68.57;95532.66;4192930;28;20127;-55
2022/10/21 03:19:45;;;;;;;17.63;12.55;;;;;;;7.31;68.12;95528.50;4192386;28;20047;-54
2022/10/21 03:21:46;;;;;;;21.77;13.98;;;;;;;7.09;68.32;95535.38;4196482;28;20045;-59
2022/10/21 03:23:48;;;;;;;22.33;13.55;;;;;;;7.07;69.34;95532.03;4192430;28;20136;-56
2022/10/21 03:25:50;;;;;;;18.70;12.50;;;;;;;7.30;68.60;95532.91;4194257;28;20092;-59
2022/10/21 03:27:51;;;;;;;20.05;13.88;;;;;;;7.48;68.11;95529.81;4193100;28;20091;-61
2022/10/21 03:29:53;;;;;;;22.08;14.02;;;;;;;7.67;67.16;95527.41;4188801;28;20679;-63
2022/10/21 03:31:55;;;;;;;18.85;13.95;;;;;;;7.76;66.57;95528.47;4195264;28;20433;-61
2022/10/21 03:33:56;;;;;;;21.95;13.13;;;;;;;7.84;66.44;95525.25;4192833;28;20067;-63
2022/10/21 03:35:58;;;;;;;20.48;13.98;;;;;;;7.89;66.02;95526.53;4192931;28;20048;-64
2022/10/21 03:38:00;;;;;;;20.13;14.70;;;;;;;7.95;66.58;95535.66;4193972;28;20135;-64
2022/10/21 03:40:02;;;;;;;17.65;13.48;;;;;;;8.00;65.72;95531.75;4180470;28;20041;-62
2022/10/21 03:42:07;;;;;;;19.42;13.88;;;;;;;8.09;64.96;95527.56;4180215;28;20098;-61
2022/10/21 03:44:09;;;;;;;19.55;14.02;;;;;;;8.09;65.12;95531.97;4180014;28;20049;-63
2022/10/21 03:46:11;;;;;;;16.08;11.88;;;;;;;8.12;64.85;95535.13;4178416;28;20064;-63
2022/10/21 03:48:13;;;;;;;18.80;13.55;;;;;;;8.14;64.89;95535.84;4191746;28;20485;-64
2022/10/21 03:50:14;;;;;;;19.05;13.45;;;;;;;8.16;65.09;95530.50;4182897;28;20066;-64
2022/10/21 03:52:22;;;;;;;23.17;13.43;;;;;;;8.18;64.78;95529.44;4188267;28;20053;-66
2022/10/21 03:54:24;;;;;;;19.88;14.00;;;;;;;8.18;64.62;95533.81;4178612;28;20077;-62
2022/10/21 03:56:26;;;;;;;18.50;13.02;;;;;;;8.23;64.95;95538.66;4178127;28;20056;-62
2022/10/21 03:58:27;;;;;;;16.35;12.50;;;;;;;8.21;64.55;95538.78;4180626;28;20132;-63
2022/10/21 04:00:29;;;;;;;19.50;12.70;;;;;;;8.17;64.98;95538.22;4185835;28;20132;-62
2022/10/21 04:02:32;;;;;;;17.53;13.03;;;;;;;8.16;64.89;95541.78;4192199;28;20136;-63
2022/10/21 04:04:34;;;;;;;23.15;12.98;;;;;;;8.16;64.77;95536.56;4185238;28;20296;-65
2022/10/21 04:06:35;;;;;;;18.65;11.98;;;;;;;8.18;65.02;95539.03;4179825;28;20140;-65
2022/10/21 04:08:39;;;;;;;19.98;12.88;;;;;;;8.15;65.16;95536.66;4180146;28;20501;-63
2022/10/21 04:10:41;;;;;;;16.75;11.95;;;;;;;8.13;64.61;95534.19;4179771;28;20542;-65
2022/10/21 04:12:43;;;;;;;22.58;13.70;;;;;;;8.12;64.51;95536.94;4188257;28;20052;-63
2022/10/21 04:14:44;;;;;;;19.60;13.32;;;;;;;8.04;65.32;95532.31;4180845;28;20041;-64
2022/10/21 04:16:46;;;;;;;21.00;14.10;;;;;;;8.11;64.91;95537.88;4183951;28;20143;-64
2022/10/21 04:18:48;;;;;;;24.40;14.18;;;;;;;8.14;65.12;95533.22;4196449;28;20071;-63
2022/10/21 04:20:50;;;;;;;20.83;13.32;;;;;;;8.19;65.03;95536.31;4182392;28;20080;-63
2022/10/21 04:22:51;;;;;;;18.67;12.57;;;;;;;8.19;64.87;95538.94;4195544;28;20072;-63
2022/10/21 04:24:53;;;;;;;19.45;12.85;;;;;;;8.20;65.13;95534.53;4190082;28;20132;-63
2022/10/21 04:26:55;;;;;;;19.95;13.05;;;;;;;8.20;65.03;95531.91;4188981;28;20477;-62
2022/10/21 04:28:57;;;;;;;21.15;13.63;;;;;;;8.19;65.29;95532.84;4195526;28;20055;-65
2022/10/21 04:30:58;;;;;;;22.00;13.80;;;;;;;8.23;65.14;95534.28;4187601;28;20668;-64
2022/10/21 04:33:00;;;;;;;22.17;15.18;;;;;;;8.25;64.47;95536.75;4195776;28;20105;-65
2022/10/21 04:35:02;;;;;;;21.92;14.48;;;;;;;8.28;64.88;95539.97;4196051;28;20072;-63
2022/10/21 04:37:04;;;;;;;20.92;13.75;;;;;;;8.35;64.55;95529.84;4195589;28;20052;-64
2022/10/21 04:39:06;;;;;;;25.35;14.90;;;;;;;8.30;64.51;95529.38;4195789;28;20102;-64
2022/10/21 04:41:07;;;;;;;18.92;13.45;;;;;;;8.33;64.82;95534.38;4188548;28;20570;-64
2022/10/21 04:43:09;;;;;;;22.83;14.32;;;;;;;8.35;64.83;95535.06;4195586;28;20131;-64
2022/10/21 04:45:10;;;;;;;21.35;14.13;;;;;;;8.35;63.93;95535.06;4181764;28;20055;-66
2022/10/21 04:47:12;;;;;;;20.67;13.73;;;;;;;8.33;64.17;95535.19;4183867;28;20420;-66
2022/10/21 04:49:14;;;;;;;27.77;15.65;;;;;;;8.30;64.14;95535.44;4186586;28;20128;-64
2022/10/21 04:51:15;;;;;;;23.30;14.15;;;;;;;8.28;65.08;95539.13;4190444;28;20541;-59
2022/10/21 04:53:17;;;;;;;22.98;13.40;;;;;;;8.29;63.87;95540.78;4194251;28;20175;-58
2022/10/21 04:55:19;;;;;;;22.92;14.63;;;;;;;8.21;64.22;95541.41;4195379;28;20044;-58
2022/10/21 04:57:20;;;;;;;24.80;14.35;;;;;;;8.17;64.05;95538.22;4195254;28;20127;-58
2022/10/21 04:59:22;;;;;;;20.60;13.70;;;;;;;8.18;64.84;95539.03;4191952;28;20139;-56
2022/10/21 05:01:24;;;;;;;22.15;13.73;;;;;;;8.18;64.45;95544.25;4179877;28;20056;-58
2022/10/21 05:03:26;;;;;;;27.80;14.82;;;;;;;8.21;64.44;95539.59;4193477;28;20048;-59
2022/10/21 05:05:27;;;;;;;26.60;14.00;;;;;;;8.25;64.44;95534.16;4184126;28;20076;-60
2022/10/21 05:07:29;;;;;;;27.05;14.15;;;;;;;8.25;64.92;95542.00;4195565;28;20060;-60
2022/10/21 05:09:31;;;;;;;20.42;13.70;;;;;;;8.25;64.14;95536.75;4183417;28;20064;-57
2022/10/21 05:11:32;;;;;;;23.30;13.23;;;;;;;8.34;63.90;95538.63;4193311;28;20075;-59
2022/10/21 05:13:34;;;;;;;19.15;14.70;;;;;;;8.40;63.88;95543.34;4190043;28;20651;-60
2022/10/21 05:15:35;;;;;;;19.25;14.00;;;;;;;8.46;63.30;95547.28;4185026;28;20052;-60
2022/10/21 05:17:37;;;;;;;24.95;14.77;;;;;;;8.51;63.84;95545.94;4193495;28;20076;-60
2022/10/21 05:19:39;;;;;;;27.95;14.85;;;;;;;8.56;63.23;95541.19;4181464;28;20075;-61
2022/10/21 05:21:41;;;;;;;22.10;14.18;;;;;;;8.68;63.29;95535.91;4194263;28;20052;-58
2022/10/21 05:23:43;;;;;;;21.58;13.13;;;;;;;8.77;63.04;95540.34;4194358;28;20151;-60
2022/10/21 05:25:45;;;;;;;21.52;13.77;;;;;;;8.87;62.74;95543.88;4194659;28;20112;-60
2022/10/21 05:27:47;;;;;;;23.25;13.73;;;;;;;9.07;62.19;95539.56;4191861;28;20063;-60
2022/10/21 05:29:48;;;;;;;20.30;13.45;;;;;;;9.11;61.85;95545.38;4183329;28;20136;-64
2022/10/21 05:31:50;;;;;;;28.88;16.48;;;;;;;9.11;61.70;95540.16;4178499;28;20413;-60
2022/10/21 05:33:52;;;;;;;26.40;13.38;;;;;;;8.99;62.01;95535.00;4194540;28;20056;-59
2022/10/21 05:35:59;;;;;;;20.20;13.20;;;;;;;8.94;61.83;95537.16;4194577;28;20394;-59
2022/10/21 05:38:03;;;;;;;38.08;15.43;;;;;;;8.97;62.83;95543.91;4191507;28;20056;-59
2022/10/21 05:40:05;;;;;;;37.55;15.82;;;;;;;9.07;62.82;95549.22;4178212;28;20059;-59
2022/10/21 05:42:07;;;;;;;34.08;18.40;;;;;;;9.13;62.93;95546.09;4177864;28;20053;-59
2022/10/21 05:44:09;;;;;;;30.13;18.38;;;;;;;9.21;62.10;95552.31;4177037;28;20136;-58
2022/10/21 05:46:10;;;;;;;31.25;17.08;;;;;;;9.31;62.23;95554.97;4177082;28;20053;-57
2022/10/21 05:48:12;;;;;;;33.53;16.92;;;;;;;9.40;61.91;95553.38;4178517;28;20148;-56
2022/10/21 05:50:18;;;;;;;37.60;17.02;;;;;;;9.50;61.64;95558.63;4178869;28;20049;-57
2022/10/21 05:52:20;;;;;;;25.27;15.32;;;;;;;9.56;61.02;95552.88;4178606;28;20076;-59
2022/10/21 05:54:22;;;;;;;31.40;15.57;;;;;;;9.63;61.06;95554.81;4189486;28;20048;-59
2022/10/21 05:56:23;;;;;;;28.10;15.23;;;;;;;9.62;60.59;95560.22;4180317;28;20557;-65
2022/10/21 05:58:26;;;;;;;24.25;14.45;;;;;;;9.66;60.74;95566.00;4193677;28;20512;-64
2022/10/21 06:00:28;;;;;;;28.55;14.50;;;;;;;9.63;60.30;95572.31;4192779;28;20586;-62
2022/10/21 06:02:29;;;;;;;18.38;13.90;;;;;;;9.64;60.51;95571.38;4194467;28;20504;-64
2022/10/21 06:04:31;;;;;;;21.05;14.00;;;;;;;9.68;60.53;95571.91;4179808;28;20124;-64
2022/10/21 06:06:39;;;;;;;24.63;14.88;;;;;;;9.71;60.02;95576.91;4194901;28;20059;-64
2022/10/21 06:08:40;;;;;;;26.23;14.43;;;;;;;9.72;60.68;95584.63;4185828;28;20053;-67
2022/10/21 06:10:43;;;;;;;23.80;14.05;;;;;;;9.78;60.38;95584.06;4190453;28;20579;-65
2022/10/21 06:12:44;;;;;;;24.95;14.73;;;;;;;9.83;59.96;95587.16;4180765;28;20536;-67
2022/10/21 06:14:46;;;;;;;24.52;15.73;;;;;;;9.92;60.40;95592.56;4194364;28;20122;-63
2022/10/21 06:16:48;;;;;;;21.33;14.38;;;;;;;9.95;59.59;95600.13;4185902;28;20517;-65
2022/10/21 06:18:50;;;;;;;24.83;15.35;;;;;;;10.00;59.64;95597.91;4190465;28;20536;-64
2022/10/21 06:20:52;;;;;;;27.33;14.68;;;;;;;10.06;59.98;95594.78;4192770;28;20076;-63
2022/10/21 06:22:53;;;;;;;23.73;15.18;;;;;;;10.20;60.16;95593.59;4192856;28;20051;-64
2022/10/21 06:24:55;;;;;;;29.23;15.43;;;;;;;10.30;60.06;95593.63;4194720;28;20132;-64
2022/10/21 06:26:56;;;;;;;23.85;13.57;;;;;;;10.34;59.60;95598.44;4194083;28;20059;-65
2022/10/21 06:28:58;;;;;;;22.80;15.70;;;;;;;10.23;59.76;95601.97;4194127;28;20048;-64
2022/10/21 06:31:00;;;;;;;25.52;13.90;;;;;;;10.25;60.21;95599.25;4186976;28;20060;-65
2022/10/21 06:33:02;;;;;;;24.67;15.32;;;;;;;10.34;60.61;95597.63;4178567;28;20131;-67
2022/10/21 06:35:03;;;;;;;25.42;15.35;;;;;;;10.05;60.59;95601.00;4178706;28;20076;-66
2022/10/21 06:37:05;;;;;;;23.05;15.43;;;;;;;10.08;60.51;95605.94;4187131;28;20090;-67
2022/10/21 06:39:07;;;;;;;23.50;15.00;;;;;;;10.14;61.00;95599.34;4183123;28;20140;-65
2022/10/21 06:41:11;;;;;;;26.38;15.48;;;;;;;10.25;60.20;95604.47;4184644;28;20136;-66
2022/10/21 06:43:15;;;;;;;26.25;16.90;;;;;;;9.88;60.91;95602.44;4178324;28;20394;-68
2022/10/21 06:45:17;;;;;;;35.80;19.33;;;;;;;9.69;61.49;95602.38;4179418;28;20052;-68
2022/10/21 06:47:18;;;;;;;28.00;19.52;;;;;;;9.52;61.60;95604.63;4188695;28;20048;-66
2022/10/21 06:49:20;;;;;;;27.30;17.33;;;;;;;9.48;61.44;95603.22;4178565;28;20124;-65
2022/10/21 06:51:23;;;;;;;25.05;16.98;;;;;;;9.42;61.91;95604.59;4184980;28;20048;-64
2022/10/21 06:53:25;;;;;;;28.40;18.05;;;;;;;9.47;62.33;95611.22;4181748;28;20131;-66
2022/10/21 06:55:26;;;;;;;29.80;16.98;;;;;;;9.42;63.56;95604.59;4191238;28;20091;-67
2022/10/21 06:57:28;;;;;;;25.48;16.88;;;;;;;9.68;63.30;95614.63;4180107;28;20086;-64
2022/10/21 06:59:30;;;;;;;23.40;16.30;;;;;;;9.95;62.89;95610.59;4164283;28;20057;-63
2022/10/21 07:01:32;;;;;;;21.20;15.15;;;;;;;10.14;62.86;95615.06;4179315;28;20201;-66
2022/10/21 07:03:54;;;;;;;23.27;14.70;;;;;;;10.41;62.16;95611.81;4191091;28;20049;-63
2022/10/21 07:05:59;;;;;;;25.67;14.32;;;;;;;10.50;61.88;95611.03;4185310;28;20072;-64
2022/10/21 07:08:01;;;;;;;18.60;13.80;;;;;;;10.52;62.14;95611.72;4190572;28;20172;-65
2022/10/21 07:10:03;;;;;;;22.90;13.75;;;;;;;10.29;62.55;95605.03;4187837;28;20045;-65
2022/10/21 07:12:05;;;;;;;26.52;12.82;;;;;;;10.03;64.13;95614.19;4186734;28;20110;-64
2022/10/21 07:14:07;;;;;;;18.27;12.70;;;;;;;10.08;64.00;95616.41;4181518;28;20053;-65
2022/10/21 07:16:38;;;;;;;18.15;12.13;;;;;;;10.22;63.87;95602.97;4178948;28;20131;-64
2022/10/21 07:18:39;;;;;;;21.85;12.27;;;;;;;10.12;64.19;95612.56;4176301;28;20049;-65
2022/10/21 07:20:43;;;;;;;19.85;13.00;;;;;;;10.02;64.69;95607.31;4182098;28;20052;-67
2022/10/21 07:22:44;;;;;;;21.27;12.43;;;;;;;10.07;64.43;95611.31;4192950;28;20041;-65
2022/10/21 07:24:46;;;;;;;21.45;12.73;;;;;;;10.22;64.05;95605.56;4181473;28;20132;-66
2022/10/21 07:26:48;;;;;;;26.63;13.85;;;;;;;10.47;63.91;95613.09;4181128;28;20454;-65
2022/10/21 07:28:51;;;;;;;21.10;12.63;;;;;;;10.74;62.76;95610.63;4183425;28;20059;-66
2022/10/21 07:30:52;;;;;;;20.05;12.48;;;;;;;11.04;62.40;95609.66;4190533;28;20083;-68
2022/10/21 07:33:00;;;;;;;24.08;12.95;;;;;;;11.31;61.52;95602.03;4180656;28;20508;-68
2022/10/21 07:35:02;;;;;;;22.48;13.25;;;;;;;11.48;60.95;95606.53;4180414;28;20049;-65
2022/10/21 07:37:04;;;;;;;20.13;13.90;;;;;;;11.70;60.47;95600.09;4188336;28;20048;-67
2022/10/21 07:39:09;;;;;;;20.90;12.73;;;;;;;11.78;59.74;95608.09;4182062;28;20553;-65
2022/10/21 07:41:22;;;;;;;22.23;12.93;;;;;;;11.92;59.33;95606.84;4181087;28;20048;-69
2022/10/21 07:43:24;;;;;;;25.20;12.15;;;;;;;12.05;58.97;95603.88;4192187;28;20087;-66
2022/10/21 07:45:26;;;;;;;18.48;11.30;;;;;;;11.98;59.07;95606.25;4179775;28;20049;-66
2022/10/21 07:47:27;;;;;;;18.17;11.30;;;;;;;11.47;60.07;95607.53;4181508;28;20049;-67
2022/10/21 07:49:29;;;;;;;17.60;10.90;;;;;;;11.59;60.56;95595.03;4181248;28;20045;-66
2022/10/21 07:51:31;;;;;;;20.38;11.25;;;;;;;11.75;60.12;95597.06;4182009;28;20121;-66
2022/10/21 07:53:33;;;;;;;19.63;12.27;;;;;;;11.73;59.91;95596.38;4163613;28;20563;-68
2022/10/21 07:55:34;;;;;;;19.25;11.60;;;;;;;11.85;59.81;95603.94;4179714;28;20093;-64
2022/10/21 07:57:36;;;;;;;22.70;13.02;;;;;;;11.82;59.33;95600.75;4192029;28;20048;-64
2022/10/21 07:59:38;;;;;;;22.92;12.60;;;;;;;11.59;60.17;95606.34;4182796;28;20148;-64
2022/10/21 08:01:42;;;;;;;21.23;12.75;;;;;;;11.83;60.44;95600.63;4194473;28;20058;-66
2022/10/21 08:03:46;;;;;;;19.20;12.63;;;;;;;11.64;59.83;95600.69;4181227;28;20106;-58
2022/10/21 08:05:47;;;;;;;18.83;12.55;;;;;;;11.43;60.93;95593.03;4179506;28;20533;-58
2022/10/21 08:07:49;;;;;;;19.00;12.23;;;;;;;11.21;61.62;95596.81;4181234;28;20091;-57
2022/10/21 08:09:51;;;;;;;28.45;14.50;;;;;;;11.34;61.80;95592.09;4185571;28;20139;-60
2022/10/21 08:11:52;;;;;;;20.90;13.05;;;;;;;11.66;61.19;95583.84;4187475;28;20048;-62
2022/10/21 08:13:55;;;;;;;20.67;12.45;;;;;;;11.81;59.95;95593.88;4180424;28;20449;-61
2022/10/21 08:15:58;;;;;;;18.40;12.73;;;;;;;11.72;60.26;95587.66;4194661;28;20053;-60
2022/10/21 08:17:59;;;;;;;20.52;12.98;;;;;;;11.72;60.33;95582.41;4186086;28;20361;-61
2022/10/21 08:20:01;;;;;;;17.70;12.73;;;;;;;11.95;60.14;95587.34;4186593;28;20049;-57
2022/10/21 08:22:03;;;;;;;21.08;12.52;;;;;;;12.23;59.03;95581.09;4178574;28;20140;-60
2022/10/21 08:24:05;;;;;;;21.08;13.23;;;;;;;12.48;58.53;95576.09;4183020;28;20139;-63
2022/10/21 08:26:09;;;;;;;21.83;13.38;;;;;;;12.53;57.72;95580.91;4194624;28;20456;-60
2022/10/21 08:28:11;;;;;;;18.58;12.82;;;;;;;12.62;57.48;95583.44;4187764;28;20502;-59
2022/10/21 08:30:14;;;;;;;18.58;12.85;;;;;;;12.58;57.44;95578.66;4178399;28;20057;-61
2022/10/21 08:32:16;;;;;;;19.30;12.82;;;;;;;12.68;57.64;95569.72;4191174;28;20072;-60
2022/10/21 08:34:17;;;;;;;23.45;13.55;;;;;;;12.79;57.49;95573.91;4179100;28;20478;-61
2022/10/21 08:36:21;;;;;;;18.13;12.57;;;;;;;12.96;56.80;95571.44;4192677;28;20045;-62
2022/10/21 08:38:23;;;;;;;23.73;12.60;;;;;;;12.75;56.54;95574.38;4183318;28;20076;-58
2022/10/21 08:40:28;;;;;;;20.27;13.02;;;;;;;12.12;58.82;95581.31;4181641;28;20067;-59
2022/10/21 08:42:30;;;;;;;20.75;13.00;;;;;;;11.90;59.97;95586.97;4195280;28;20058;-59
2022/10/21 08:45:08;;;;;;;18.70;13.40;;;;;;;12.06;59.66;95581.88;4184774;28;20103;-66
2022/10/21 08:47:20;;;;;;;21.25;12.93;;;;;;;11.76;59.88;95578.53;4171092;28;20073;-70
2022/10/21 08:49:27;;;;;;;23.38;13.10;;;;;;;11.81;60.25;95576.31;4188648;28;20081;-66
2022/10/21 08:51:35;;;;;;;18.50;13.98;;;;;;;12.13;59.32;95576.88;4182795;28;20048;-66
2022/10/21 08:53:40;;;;;;;22.33;13.98;;;;;;;12.09;59.58;95574.53;4183228;28;20140;-70
2022/10/21 08:55:44;;;;;;;21.25;13.98;;;;;;;12.38;58.90;95570.91;4195492;28;20136;-68
2022/10/21 08:57:49;;;;;;;;;;;;;;;12.40;58.21;95565.50;4183436;28;20643;-68
2022/10/21 08:59:50;;;;;;;22.85;12.77;;;;;;;12.26;58.74;95562.41;4178951;28;20408;-67
2022/10/21 09:02:15;;;;;;;26.33;14.70;;;;;;;12.43;58.78;95565.19;4179255;28;20045;-66
2022/10/21 09:04:50;;;;;;;21.92;13.63;;;;;;;12.20;59.37;95563.00;4194360;28;20080;-67
2022/10/21 09:07:01;;;;;;;20.08;13.50;;;;;;;12.55;59.14;95560.56;4179214;28;20592;-66
2022/10/21 09:09:13;;;;;;;21.83;13.70;;;;;;;12.57;58.82;95545.47;4179042;28;20465;-61
2022/10/21 09:11:18;;;;;;;17.52;12.85;;;;;;;12.96;58.01;95543.31;4191996;28;20048;-59
2022/10/21 09:13:37;;;;;;;21.05;13.38;;;;;;;13.41;57.33;95537.06;4191858;28;20136;-60
2022/10/21 09:16:00;;;;;;;23.42;13.45;;;;;;;13.76;56.01;95537.09;4185648;28;20412;-59
2022/10/21 09:18:20;;;;;;;18.08;13.50;;;;;;;13.58;55.41;95538.00;4189806;28;20079;-60
2022/10/21 09:21:19;;;;;;;25.13;14.30;;;;;;;13.57;55.39;95541.59;4186730;28;20163;-61
2022/10/21 09:23:57;;;;;;;17.73;13.32;;;;;;;13.52;55.64;95544.69;4165851;28;20041;-61
2022/10/21 09:26:00;;;;;;;23.55;13.63;;;;;;;13.67;55.90;95536.22;4175372;28;20095;-62
2022/10/21 09:28:27;;;;;;;24.33;13.07;;;;;;;13.99;55.33;95532.06;4171480;28;20061;-61
2022/10/21 09:30:28;;;;;;;24.08;13.88;;;;;;;14.21;54.32;95520.94;4169813;28;20171;-61
2022/10/21 09:32:37;;;;;;;17.73;13.23;;;;;;;14.45;54.22;95516.69;4173640;28;20140;-60
2022/10/21 09:34:48;;;;;;;18.52;12.82;;;;;;;14.69;53.57;95510.63;4162895;28;20052;-62
2022/10/21 09:36:51;;;;;;;16.65;12.05;;;;;;;14.80;52.80;95515.59;4165711;28;20128;-60
2022/10/21 09:39:00;;;;;;;28.75;13.30;;;;;;;14.84;52.87;95516.94;4168071;28;20136;-62